• Join FlightAware (Why Join?)
  • Login
  • US Flag 
12:03PM EDT


 

Airport Tracker/Info


-or-


 

Live Flight TrackerFlight Track Log ✈ SWA182 ✈ 12-Jun-2013 ✈ KLAX - KLAS

Flight Track Log - Related Links

Times and Time Zones

All times are in EDT time to prevent confusion due to time zone crossing. See the SWA182 flight status page for this flight to view local times or setup timezone preferences in your user account.

Time Position Orientation Groundspeed Altitude Reporting Facility
EDT Latitude Longitude Course Direction KTS MPH feet Rate Location/Type
12:52AM 33.9369 -118.4956 258° West 193 222 4,600  Level Los Angeles Center
12:53AM 33.8650 -118.5075 188° South 255 293 8,300 3,540 Climbing Los Angeles Center
12:54AM 33.7594 -118.5172 184° South 333 383 11,900 3,060 Climbing Los Angeles Center
12:55AM 33.6814 -118.4664 152° Southeast 356 410 14,600 2,520 Climbing Los Angeles Center
12:56AM 33.6878 -118.3478 86° East 384 442 17,100 2,520 Climbing Los Angeles Center
12:57AM 33.6804 -118.4991 101° East  Level FlightAware Approximate
12:57AM 33.7272 -118.2269 69° East 407 468 19,800  Level Los Angeles Center
12:58AM 33.7792 -118.0719 68° East 421 484 23,000 1,560 Climbing Los Angeles Center
12:59AM 33.8714 -117.9750 41° Northeast 447 514 23,000 360 Level Los Angeles Center
01:01AM 33.9706 -117.8853 37° Northeast 447 514 23,800 1,560 Climbing Los Angeles Center
01:02AM 34.0725 -117.7925 37° Northeast 457 526 26,200 1,800 Climbing Los Angeles Center
01:03AM 34.1656 -117.6747 46° Northeast 479 551 27,500 1,080 Climbing Los Angeles Center
01:04AM 34.2558 -117.5517 48° Northeast 488 562 28,500 720 Climbing Los Angeles Center
01:05AM 34.3481 -117.4261 48° Northeast 495 570 29,000 240 Climbing Los Angeles Center
01:06AM 34.4450 -117.2931 49° Northeast 504 580 29,000  Level Los Angeles Center
01:07AM 34.5364 -117.1664 49° Northeast 504 580 29,000  Level Los Angeles Center
01:08AM 34.6464 -117.0142 49° Northeast 504 580 29,000  Level Los Angeles Center
01:09AM 34.7378 -116.8864 49° Northeast 505 581 29,000  Level Los Angeles Center
01:10AM 34.8308 -116.7581 49° Northeast 507 583 29,000 -60 Level Los Angeles Center
01:11AM 34.9233 -116.6286 49° Northeast 508 585 28,900 -1,320 Descending Los Angeles Center
01:12AM 35.0175 -116.5053 47° Northeast 502 578 26,300 -2,340 Descending Los Angeles Center
01:13AM 35.0944 -116.4103 45° Northeast 497 572 24,200 -1,140 Descending Los Angeles Center
01:14AM 35.2017 -116.2767 45° Northeast 468 539 24,000 -180 Descending Los Angeles Center
01:15AM 35.2894 -116.1639 46° Northeast 459 528 23,900 -1,620 Descending Los Angeles Center
01:16AM 35.3953 -116.0333 45° Northeast 452 520 20,700 -2,940 Descending Los Angeles Center
01:16AM 35.4244 -116.0031 40° Northeast 452 520 19,900 -2,460 Descending Los Angeles Center
01:17AM 35.4783 -115.9247 50° Northeast 441 507 18,200 -2,460 Descending Los Angeles Center
01:18AM 35.5564 -115.8278 45° Northeast 429 494 15,800 -2,340 Descending Los Angeles Center
01:19AM 35.6600 -115.7011 45° Northeast 406 467 13,000 -1,200 Descending Los Angeles Center
01:20AM 35.7364 -115.6053 46° Northeast 366 421 13,100  Climbing Los Angeles Center
01:21AM 35.8053 -115.5608 28° Northeast 357 411 13,000 -360 Descending Los Angeles Center
01:21AM 35.8322 -115.5478 21° North 358 412 12,700 -1,500 Descending Los Angeles Center
01:22AM 35.8967 -115.5117 24° Northeast 350 403 11,500 -1,560 Descending Los Angeles Center
01:23AM 35.9825 -115.4689 22° Northeast 343 395 10,000 -1,200 Descending Los Angeles Center
01:23AM 36.0053 -115.4600 18° North 324 373 10,000  Level Los Angeles Center
01:24AM 36.0611 -115.4289 24° Northeast 317 365 10,000  Level Los Angeles Center
01:24AM 36.0847 -115.4181 20° North 313 360 10,000 -540 Level Los Angeles Center
01:25AM 36.1378 -115.3892 24° Northeast 307 353 9,500 -900 Descending Los Angeles Center
01:25AM 36.1608 -115.3800 18° North 285 328 9,100 -1,200 Descending Los Angeles Center
01:26AM 36.1686 -115.3183 81° East 282 325 8,300 -1,440 Descending Los Angeles Center
01:27AM 36.1653 -115.2500 93° East 231 266 6,600 -1,860 Descending Los Angeles Center
01:28AM 36.1600 -115.1564 94° East 189 217 4,100 -1,740 Descending Los Angeles Center
01:29AM 36.1406 -115.1297 132° Southeast 178 205 3,100 -900 Descending Los Angeles Center
01:30AM 36.1111 -115.1447 202° Southwest 136 157 2,500 -600 Descending Los Angeles Center
01:32AM 36.0801 -115.1523 270° West  Level Estimated
01:39AM 36.0801 -115.1523 270° West  Level Estimated